Seattle, Washington
Traffic Map
Current Weather Conditions
Seattle, Washington
Overcast Light Rain
Overcast
12°
Feels Like: 12°
Wind Chill: 12° Ceiling: 4700
Heat Index: 12° Visibility: 6mi
Dew Point: 10° Wind: 0mph
Humidity: 86% Direction: ° ()
Pressure: 29.76in Gusts: 0mph
Raw Report DataKBFI 310953Z 00000KT 6SM -RA BR OVC047 12/10 A2976 RMK AO2 SLP076 P0004 T01220100
Traffic Incident Summary
Active as of:
Severity:
Category:
InformationThere was an issue retrieving the traffic information for this location. Please try a different location or try again shortly.
Advertisements
Track Severe Weather on mobile